Time;durP1;ratioP1;P1;durP2;ratioP2;P2;SDS_P1;SDS_P2;PMS_P1;PMS_P2;Temp;Humidity;BMP_temperature;BMP_pressure;BME280_temperature;BME280_humidity;BME280_pressure;Samples;Min_cycle;Max_cycle;Signal;HPM_P1;HPM_P2
2022/05/19 00:01:57;;;;;;;29.30;18.70;;;;;;;19.96;72.31;101558.63;5013398;28;20025;-84
2022/05/19 00:04:23;;;;;;;30.13;19.42;;;;;;;19.90;72.23;101552.28;4979466;28;20482;-84
2022/05/19 00:06:48;;;;;;;41.50;20.73;;;;;;;19.88;72.24;101551.69;4996029;28;20037;-84
2022/05/19 00:09:16;;;;;;;26.30;19.40;;;;;;;19.88;72.65;101548.09;4995931;28;20172;-84
2022/05/19 00:11:43;;;;;;;29.85;20.20;;;;;;;19.84;72.55;101544.22;4995560;28;20030;-84
2022/05/19 00:14:09;;;;;;;30.08;20.88;;;;;;;19.80;72.93;101536.47;4998945;28;20156;-85
2022/05/19 00:16:35;;;;;;;33.30;20.60;;;;;;;19.76;73.19;101537.22;4999792;28;20092;-84
2022/05/19 00:19:06;;;;;;;29.40;20.45;;;;;;;19.74;73.11;101528.41;4999499;28;20018;-84
2022/05/19 00:21:34;;;;;;;34.38;20.45;;;;;;;19.70;73.55;101530.00;5016912;28;20462;-85
2022/05/19 00:24:00;;;;;;;32.03;19.83;;;;;;;19.69;73.54;101525.59;4999666;28;20359;-85
2022/05/19 00:26:26;;;;;;;29.60;19.93;;;;;;;19.68;73.53;101526.66;4999040;28;20025;-84
2022/05/19 00:28:51;;;;;;;37.35;20.17;;;;;;;19.63;73.67;101521.94;4983200;28;20038;-84
2022/05/19 00:31:17;;;;;;;34.47;20.30;;;;;;;19.62;73.86;101523.03;4979516;28;20050;-84
2022/05/19 00:33:43;;;;;;;33.95;20.65;;;;;;;19.60;74.20;101522.47;4979380;28;20031;-84
2022/05/19 00:36:14;;;;;;;28.47;19.30;;;;;;;19.62;74.31;101517.53;4964077;28;20076;-84
2022/05/19 00:38:43;;;;;;;36.80;20.55;;;;;;;19.50;74.41;101503.94;4980093;28;20458;-87
2022/05/19 00:41:10;;;;;;;33.40;20.58;;;;;;;19.54;74.38;101516.09;4996916;28;20045;-86
2022/05/19 00:43:40;;;;;;;34.65;19.77;;;;;;;19.49;74.56;101513.28;4979539;28;20062;-86
2022/05/19 00:46:14;;;;;;;29.65;19.45;;;;;;;19.49;74.09;101505.03;4979542;28;20089;-86
2022/05/19 00:48:46;;;;;;;30.00;18.77;;;;;;;19.46;74.44;101511.88;4996713;28;20503;-86
2022/05/19 00:51:16;;;;;;;31.33;20.15;;;;;;;19.40;74.86;101501.06;4979383;28;20088;-86
2022/05/19 00:53:52;;;;;;;31.85;20.45;;;;;;;19.38;75.26;101500.50;4997439;28;20455;-87
2022/05/19 00:56:36;;;;;;;28.60;19.77;;;;;;;19.34;74.66;101496.59;4979300;28;20066;-86
2022/05/19 00:59:14;;;;;;;30.90;19.77;;;;;;;19.30;74.73;101495.47;4979611;28;20466;-86
2022/05/19 01:01:44;;;;;;;28.80;20.17;;;;;;;19.23;75.71;101487.41;4979252;28;20501;-86
2022/05/19 01:04:18;;;;;;;32.20;20.48;;;;;;;19.24;75.86;101481.66;4979532;28;20046;-86
2022/05/19 01:06:47;;;;;;;33.03;21.40;;;;;;;19.18;76.02;101481.88;4979225;28;20057;-86
2022/05/19 01:09:17;;;;;;;32.13;21.17;;;;;;;19.11;76.20;101480.13;4979108;28;20478;-86
2022/05/19 01:11:44;;;;;;;33.20;22.20;;;;;;;19.08;76.76;101477.91;4996256;28;20023;-86
2022/05/19 01:14:09;;;;;;;32.53;22.60;;;;;;;19.06;77.08;101473.72;4979677;28;20087;-87
2022/05/19 01:16:37;;;;;;;39.80;22.92;;;;;;;19.04;77.19;101476.75;4963194;28;20482;-87
2022/05/19 01:19:34;;;;;;;31.67;22.17;;;;;;;19.05;76.99;101470.16;4978732;28;20022;-86
2022/05/19 01:22:22;;;;;;;33.92;21.15;;;;;;;19.05;76.98;101469.34;4979165;28;20022;-86
2022/05/19 01:25:06;;;;;;;38.83;22.90;;;;;;;19.02;75.99;101462.44;4978935;28;20048;-85
2022/05/19 01:27:32;;;;;;;32.30;21.43;;;;;;;18.96;77.17;101457.97;4978649;28;20474;-86
2022/05/19 01:30:02;;;;;;;32.72;21.50;;;;;;;18.97;77.48;101456.03;4978624;28;20050;-86
2022/05/19 01:32:30;;;;;;;36.55;21.75;;;;;;;18.95;77.59;101455.47;4978861;28;20077;-86
2022/05/19 01:34:57;;;;;;;38.03;22.48;;;;;;;18.91;77.66;101445.00;4962222;28;20092;-87
2022/05/19 01:37:26;;;;;;;33.58;22.67;;;;;;;18.91;78.18;101433.16;4978524;28;20471;-86
2022/05/19 01:40:05;;;;;;;29.80;22.47;;;;;;;18.93;77.05;101441.97;4962520;28;20038;-86
2022/05/19 01:42:42;;;;;;;40.20;23.27;;;;;;;18.89;78.26;101446.31;4978819;28;20030;-86
2022/05/19 01:45:45;;;;;;;42.05;23.30;;;;;;;18.89;77.52;101447.16;4978558;28;20470;-86
2022/05/19 01:48:20;;;;;;;34.33;22.98;;;;;;;18.88;78.70;101445.50;4995770;28;20467;-86
2022/05/19 01:50:58;;;;;;;38.35;23.95;;;;;;;18.89;79.01;101438.91;4978381;28;20050;-86
2022/05/19 01:53:47;;;;;;;34.27;22.83;;;;;;;18.86;78.24;101433.91;4978632;28;20035;-86
2022/05/19 01:56:35;;;;;;;35.05;23.38;;;;;;;18.89;78.01;101443.56;4978590;28;20030;-86
2022/05/19 02:00:10;;;;;;;37.75;23.90;;;;;;;18.86;77.25;101428.41;4978522;28;20478;-86
2022/05/19 02:02:48;;;;;;;35.65;23.52;;;;;;;18.86;78.44;101428.41;4916439;29;20473;-86
2022/05/19 02:05:52;;;;;;;37.15;23.42;;;;;;;18.87;78.05;101423.78;4932400;29;20051;-86
2022/05/19 02:08:26;;;;;;;38.30;23.67;;;;;;;18.85;79.24;101417.66;5010844;28;20027;-86
2022/05/19 02:10:55;;;;;;;39.05;24.00;;;;;;;18.84;79.65;101418.72;4978308;28;20509;-86
2022/05/19 02:13:22;;;;;;;35.15;22.40;;;;;;;18.84;79.00;101421.47;4977821;28;20117;-86
2022/05/19 02:15:55;;;;;;;34.55;22.92;;;;;;;18.87;79.72;101424.59;4995636;28;20076;-86
2022/05/19 02:18:24;;;;;;;37.53;23.60;;;;;;;18.85;79.30;101421.25;4977880;28;20038;-86
2022/05/19 02:20:54;;;;;;;36.20;22.57;;;;;;;18.84;79.71;101426.97;4995047;28;20085;-86
2022/05/19 02:23:24;;;;;;;32.47;22.65;;;;;;;18.87;79.41;101432.03;4977849;28;20469;-86
2022/05/19 02:25:52;;;;;;;33.85;21.50;;;;;;;18.87;79.73;101426.53;4977372;28;20030;-86
2022/05/19 02:28:56;;;;;;;37.47;21.52;;;;;;;18.88;78.66;101426.25;4978449;28;20037;-86
2022/05/19 02:31:22;;;;;;;29.45;20.38;;;;;;;18.92;78.77;101429.31;4988887;28;20137;-87
2022/05/19 02:33:53;;;;;;;32.93;21.03;;;;;;;18.99;78.67;101434.63;4996583;28;20496;-87
2022/05/19 02:36:18;;;;;;;28.60;20.52;;;;;;;19.03;78.66;101435.75;4996240;28;20045;-86
2022/05/19 02:38:44;;;;;;;30.90;19.60;;;;;;;19.09;78.19;101430.06;5014376;28;20057;-86
2022/05/19 02:41:19;;;;;;;31.67;20.48;;;;;;;19.15;78.13;101441.09;5014267;28;20389;-86
2022/05/19 02:43:44;;;;;;;29.45;19.45;;;;;;;19.20;77.92;101436.50;4997441;28;20221;-87
2022/05/19 02:46:13;;;;;;;26.97;19.17;;;;;;;19.28;77.21;101446.19;4997147;28;20103;-86
2022/05/19 02:48:38;;;;;;;29.70;19.48;;;;;;;19.35;77.36;101448.75;5014698;28;20026;-86
2022/05/19 02:51:04;;;;;;;33.13;19.23;;;;;;;19.35;76.92;101446.81;5014180;28;20034;-87
2022/05/19 02:53:29;;;;;;;32.07;19.53;;;;;;;19.37;76.69;101446.56;4997529;28;20100;-87
2022/05/19 02:55:55;;;;;;;26.55;18.20;;;;;;;19.43;76.53;101457.38;5013937;28;20371;-86
2022/05/19 02:58:20;;;;;;;25.03;17.30;;;;;;;19.42;76.27;101455.69;4996866;28;20041;-86
2022/05/19 03:00:48;;;;;;;22.67;16.17;;;;;;;19.45;75.61;101465.34;5013984;28;20037;-86
2022/05/19 03:03:14;;;;;;;26.27;18.00;;;;;;;19.46;76.06;101535.81;5013971;28;20030;-86
2022/05/19 03:05:40;;;;;;;25.02;19.10;;;;;;;19.46;76.11;101571.59;5014245;28;20029;-86
2022/05/19 03:08:07;;;;;;;33.65;21.60;;;;;;;19.38;76.79;101558.28;5014663;28;20056;-86
2022/05/19 03:10:35;;;;;;;27.83;15.52;;;;;;;19.52;71.88;101567.81;5014149;28;20064;-86
2022/05/19 03:13:04;;;;;;;23.77;17.00;;;;;;;19.79;72.05;101605.56;4996511;28;20037;-87
2022/05/19 03:15:32;;;;;;;33.22;18.60;;;;;;;19.83;72.70;101609.47;4996949;28;20066;-86
2022/05/19 03:18:00;;;;;;;25.25;18.02;;;;;;;19.84;71.64;101589.09;5014018;28;20030;-87
2022/05/19 03:20:26;;;;;;;22.67;16.05;;;;;;;19.90;71.82;101603.75;4996097;28;20057;-86
2022/05/19 03:22:51;;;;;;;28.03;18.03;;;;;;;19.87;71.62;101604.25;4996003;28;20127;-86
2022/05/19 03:25:17;;;;;;;30.45;16.60;;;;;;;19.86;71.51;101606.19;4996490;28;20034;-87
2022/05/19 03:27:47;;;;;;;24.87;16.43;;;;;;;19.88;71.57;101600.44;5014134;28;20465;-87
2022/05/19 03:30:15;;;;;;;23.33;16.02;;;;;;;19.89;71.79;101602.09;5012482;28;20085;-86
2022/05/19 03:32:41;;;;;;;26.20;18.13;;;;;;;19.87;71.79;101602.34;4997014;28;20026;-86
2022/05/19 03:35:13;;;;;;;23.23;17.23;;;;;;;19.88;71.89;101594.91;4996182;28;20117;-86
2022/05/19 03:37:39;;;;;;;23.73;16.92;;;;;;;19.87;71.89;101602.34;4980996;28;20454;-86
2022/05/19 03:40:06;;;;;;;26.58;17.80;;;;;;;19.86;72.88;101616.38;4995877;28;20044;-87
2022/05/19 03:42:32;;;;;;;33.03;19.08;;;;;;;19.84;72.82;101605.59;4980159;28;20064;-87
2022/05/19 03:44:57;;;;;;;25.40;17.57;;;;;;;19.79;73.17;101613.81;5013420;28;20061;-86
2022/05/19 03:47:25;;;;;;;24.80;17.70;;;;;;;19.78;73.44;101598.38;5015804;28;20048;-86
2022/05/19 03:49:54;;;;;;;26.17;17.55;;;;;;;19.83;74.17;101584.69;5017398;28;20030;-86
2022/05/19 03:52:19;;;;;;;26.85;17.48;;;;;;;19.84;73.09;101585.50;4999946;28;20049;-86
2022/05/19 03:54:45;;;;;;;22.70;17.77;;;;;;;19.84;72.81;101591.03;5000030;28;20026;-86
2022/05/19 03:57:12;;;;;;;23.43;16.50;;;;;;;19.87;72.96;101605.13;4999893;28;20061;-86
2022/05/19 03:59:40;;;;;;;23.27;16.80;;;;;;;19.84;73.96;101613.88;4999952;28;20273;-86
2022/05/19 04:02:06;;;;;;;29.77;17.13;;;;;;;19.88;73.38;101625.22;5017174;28;20446;-86
2022/05/19 04:04:34;;;;;;;24.30;17.00;;;;;;;19.87;73.33;101618.88;4983270;28;20065;-86
2022/05/19 04:07:00;;;;;;;23.23;17.42;;;;;;;19.88;73.01;101611.44;5017719;28;20084;-86
2022/05/19 04:09:33;;;;;;;27.67;17.10;;;;;;;19.91;73.30;101620.00;5017310;28;20054;-86
2022/05/19 04:11:58;;;;;;;28.33;17.90;;;;;;;19.95;73.22;101621.16;4985292;28;20493;-86
2022/05/19 04:14:26;;;;;;;26.95;17.15;;;;;;;19.91;73.71;101608.97;5017038;28;20136;-84
2022/05/19 04:16:53;;;;;;;27.47;18.47;;;;;;;19.94;73.58;101618.66;4983733;28;20030;-86
2022/05/19 04:19:24;;;;;;;24.42;17.35;;;;;;;19.95;73.74;101612.06;4983810;28;20088;-86
2022/05/19 04:21:59;;;;;;;23.90;17.33;;;;;;;19.97;74.37;101620.88;4983183;28;20133;-87
2022/05/19 04:24:24;;;;;;;23.17;16.50;;;;;;;20.00;74.64;101630.56;5017625;28;20137;-87
2022/05/19 04:26:50;;;;;;;25.77;16.73;;;;;;;20.03;73.47;101625.34;4999387;28;20080;-87
2022/05/19 04:29:23;;;;;;;26.30;17.37;;;;;;;20.07;73.36;101623.75;4982143;28;20053;-87
2022/05/19 04:32:14;;;;;;;28.80;16.63;;;;;;;20.10;72.95;101609.44;4999265;28;20050;-87
2022/05/19 04:34:46;;;;;;;25.40;17.45;;;;;;;20.06;73.05;101616.56;4985204;28;20093;-87
2022/05/19 04:37:14;;;;;;;22.55;16.63;;;;;;;20.10;73.11;101603.94;5016894;28;20034;-87
2022/05/19 04:39:42;;;;;;;25.35;17.02;;;;;;;20.12;73.12;101610.03;4999275;28;20038;-87
2022/05/19 04:42:13;;;;;;;22.10;16.10;;;;;;;20.14;72.86;101610.59;4982496;28;20405;-87
2022/05/19 04:44:39;;;;;;;35.55;17.98;;;;;;;20.12;74.15;101611.94;4999049;28;20038;-88
2022/05/19 04:47:13;;;;;;;23.95;17.58;;;;;;;20.07;73.75;101609.97;4998971;28;20034;-87
2022/05/19 04:49:41;;;;;;;24.02;17.05;;;;;;;20.12;74.13;101611.94;4998900;28;20439;-87
2022/05/19 04:52:10;;;;;;;27.65;16.98;;;;;;;20.11;73.21;101607.53;4998564;28;20026;-87
2022/05/19 04:54:38;;;;;;;20.33;16.23;;;;;;;20.10;73.64;101592.91;4998891;28;20041;-87
2022/05/19 04:57:07;;;;;;;23.23;15.27;;;;;;;20.16;73.51;101602.06;4998735;28;20080;-87
2022/05/19 04:59:42;;;;;;;22.33;15.55;;;;;;;20.14;73.37;101609.78;5015495;28;20029;-87
2022/05/19 05:02:10;;;;;;;21.85;14.77;;;;;;;20.12;73.99;101607.28;5016889;28;20038;-87
2022/05/19 05:04:38;;;;;;;20.75;14.15;;;;;;;20.14;74.05;101601.50;4998245;28;20446;-87
2022/05/19 05:07:05;;;;;;;24.33;14.77;;;;;;;20.14;73.58;101609.78;5016475;28;20089;-86
2022/05/19 05:09:33;;;;;;;21.90;13.38;;;;;;;20.11;74.00;101607.53;4998503;28;20045;-86
2022/05/19 05:12:06;;;;;;;18.30;13.05;;;;;;;20.12;73.74;101595.41;4998388;28;20056;-87
2022/05/19 05:14:32;;;;;;;20.85;12.82;;;;;;;20.12;73.74;101585.25;5016037;28;20116;-85
2022/05/19 05:16:57;;;;;;;27.97;13.60;;;;;;;20.10;77.58;101578.31;4998939;28;20116;-84
2022/05/19 05:19:26;;;;;;;25.55;12.10;;;;;;;20.08;78.72;101577.78;4998135;28;20390;-84
2022/05/19 05:21:57;;;;;;;24.53;13.53;;;;;;;20.02;81.03;101567.78;5015934;28;20037;-86
2022/05/19 05:24:26;;;;;;;21.45;13.68;;;;;;;19.91;82.74;101555.84;4998047;28;20389;-86
2022/05/19 05:26:51;;;;;;;31.42;14.55;;;;;;;19.84;82.58;101552.47;4998486;28;20084;-85
2022/05/19 05:29:20;;;;;;;26.60;14.17;;;;;;;19.78;83.01;101548.81;5015183;28;20054;-85
2022/05/19 05:31:46;;;;;;;22.60;13.57;;;;;;;19.69;82.26;101540.19;4998951;28;20036;-85
2022/05/19 05:34:12;;;;;;;25.73;14.52;;;;;;;19.60;85.12;101541.75;4998086;28;20021;-84
2022/05/19 05:36:46;;;;;;;19.38;13.60;;;;;;;19.54;83.20;101529.84;4997997;28;20053;-84
2022/05/19 05:39:11;;;;;;;22.40;13.20;;;;;;;19.59;85.09;101496.88;4998781;28;20037;-84
2022/05/19 05:41:39;;;;;;;15.80;11.73;;;;;;;19.60;83.95;101484.75;4997366;28;20401;-84
2022/05/19 05:44:05;;;;;;;18.02;12.35;;;;;;;19.62;85.14;101498.25;5015230;28;20045;-82
2022/05/19 05:46:30;;;;;;;16.50;11.57;;;;;;;19.71;85.34;101493.97;4998345;28;20030;-85
2022/05/19 05:48:56;;;;;;;18.67;12.57;;;;;;;19.67;82.79;101492.81;4997515;28;20109;-85
2022/05/19 05:51:21;;;;;;;17.93;12.10;;;;;;;19.65;82.58;101503.28;4981338;28;20033;-85
2022/05/19 05:53:47;;;;;;;16.97;11.60;;;;;;;19.67;82.64;101501.06;4997184;28;20041;-84
2022/05/19 05:56:18;;;;;;;16.08;12.13;;;;;;;19.77;81.74;101498.41;5014813;28;20118;-84
2022/05/19 05:58:44;;;;;;;18.80;12.00;;;;;;;19.79;81.32;101490.75;5015259;28;20489;-84
2022/05/19 06:01:16;;;;;;;18.17;11.48;;;;;;;19.79;81.02;101488.00;4997770;28;20034;-84
2022/05/19 06:03:44;;;;;;;16.77;10.43;;;;;;;19.75;81.00;101469.47;4997351;28;20126;-84
2022/05/19 06:06:09;;;;;;;13.52;10.73;;;;;;;19.74;80.13;101479.69;5014802;28;20576;-84
2022/05/19 06:08:35;;;;;;;17.20;11.13;;;;;;;19.84;81.08;101503.72;5014716;28;20112;-84
2022/05/19 06:11:01;;;;;;;15.37;11.83;;;;;;;19.93;80.59;101509.59;4996833;28;20296;-84
2022/05/19 06:13:27;;;;;;;18.70;12.95;;;;;;;19.97;81.04;101502.47;4996955;28;20120;-84
2022/05/19 06:15:53;;;;;;;22.23;14.57;;;;;;;20.02;81.01;101504.44;5014527;28;20037;-84
2022/05/19 06:18:19;;;;;;;21.63;13.68;;;;;;;20.07;80.87;101516.31;4997070;28;20041;-84
2022/05/19 06:20:48;;;;;;;19.00;13.80;;;;;;;20.13;81.46;101514.44;5014231;28;20061;-85
2022/05/19 06:23:16;;;;;;;19.33;13.95;;;;;;;20.20;79.93;101505.97;4996972;28;20065;-84
2022/05/19 06:25:42;;;;;;;16.87;13.47;;;;;;;20.27;80.61;101504.63;4997312;28;20045;-84
2022/05/19 06:28:07;;;;;;;19.85;14.32;;;;;;;20.35;79.56;101502.47;4996946;28;20535;-84
2022/05/19 06:30:33;;;;;;;20.40;14.67;;;;;;;20.45;79.33;101502.56;4983140;28;20077;-84
2022/05/19 06:32:59;;;;;;;19.77;15.68;;;;;;;20.52;79.86;101497.59;4961661;28;20061;-84
2022/05/19 06:35:27;;;;;;;23.00;15.03;;;;;;;20.57;78.83;101494.06;4995235;28;20462;-84
2022/05/19 06:37:53;;;;;;;19.15;15.23;;;;;;;20.65;81.24;101505.44;4976694;28;20109;-83
2022/05/19 06:40:19;;;;;;;20.27;14.82;;;;;;;;;;4977117;28;20058;-81
2022/05/19 06:42:46;;;;;;;17.00;14.23;;;;;;;20.83;77.31;101500.56;4994472;28;20026;-81
2022/05/19 06:45:14;;;;;;;16.17;14.03;;;;;;;20.88;77.08;101486.00;4977121;28;20030;-82
2022/05/19 06:47:39;;;;;;;17.83;13.68;;;;;;;20.97;77.19;101478.84;4994621;28;20023;-81
2022/05/19 06:50:08;;;;;;;21.58;15.02;;;;;;;21.04;76.61;101479.44;4994191;28;20034;-82
2022/05/19 06:52:43;;;;;;;19.23;14.40;;;;;;;21.11;75.89;101493.81;4994472;28;20033;-82
2022/05/19 06:55:10;;;;;;;16.60;14.00;;;;;;;21.16;75.42;101493.81;4994625;28;20077;-82
2022/05/19 06:57:36;;;;;;;22.17;14.02;;;;;;;21.27;76.24;101494.66;4994412;28;20451;-82
2022/05/19 07:00:04;;;;;;;25.17;13.80;;;;;;;21.37;74.74;101488.34;4976994;28;20582;-82
2022/05/19 07:02:29;;;;;;;23.97;14.47;;;;;;;21.47;74.37;101484.78;4994192;28;20804;-83
2022/05/19 07:04:55;;;;;;;20.23;13.85;;;;;;;21.54;73.89;101485.38;4960912;28;20046;-83
2022/05/19 07:07:24;;;;;;;19.47;14.37;;;;;;;21.51;74.17;101477.63;4977082;28;20038;-83
2022/05/19 07:09:49;;;;;;;19.75;13.38;;;;;;;21.51;73.57;101483.13;4976846;28;20030;-83
2022/05/19 07:12:24;;;;;;;17.97;13.13;;;;;;;21.48;73.23;101478.97;4977568;28;20042;-83
2022/05/19 07:14:53;;;;;;;14.38;12.48;;;;;;;21.53;73.29;101467.16;4977210;28;20026;-83
2022/05/19 07:17:18;;;;;;;15.35;12.98;;;;;;;21.58;73.89;101472.66;4976672;28;20046;-83
2022/05/19 07:22:28;;;;;;;16.17;13.05;;;;;;;21.59;72.84;101471.56;4994153;28;20482;-83
2022/05/19 07:24:54;;;;;;;21.23;13.57;;;;;;;21.61;72.56;101465.75;4993992;28;20113;-83
2022/05/19 07:27:19;;;;;;;17.83;12.98;;;;;;;21.71;72.83;101461.06;4976826;28;20463;-83
2022/05/19 07:29:45;;;;;;;18.43;13.63;;;;;;;21.72;73.02;101462.72;4960269;28;20073;-83
2022/05/19 07:32:13;;;;;;;18.52;13.68;;;;;;;21.78;70.99;101460.81;4976528;28;20076;-83
2022/05/19 07:34:40;;;;;;;17.27;13.53;;;;;;;21.85;70.95;101466.88;4977511;28;20026;-83
2022/05/19 07:37:08;;;;;;;15.63;13.57;;;;;;;21.98;70.89;101481.22;4976341;28;20455;-83
2022/05/19 07:39:34;;;;;;;15.18;12.73;;;;;;;22.02;70.98;101483.16;4976532;28;20061;-83
2022/05/19 07:42:00;;;;;;;16.00;13.70;;;;;;;22.11;71.33;101485.38;4976666;28;20030;-84
2022/05/19 07:44:27;;;;;;;21.73;13.15;;;;;;;22.10;70.39;101486.47;4960366;28;20042;-83
2022/05/19 07:46:53;;;;;;;17.63;13.40;;;;;;;22.08;70.30;101495.88;4976348;28;20026;-83
2022/05/19 07:49:19;;;;;;;16.13;13.27;;;;;;;22.07;70.00;101491.47;4994084;28;20033;-83
2022/05/19 07:51:48;;;;;;;18.40;14.20;;;;;;;22.03;70.21;101487.59;4976649;28;20038;-84
2022/05/19 07:54:18;;;;;;;16.83;13.68;;;;;;;22.03;69.48;101484.00;4976203;28;20097;-84
2022/05/19 07:56:44;;;;;;;20.77;13.80;;;;;;;22.08;70.28;101489.53;4976265;28;20052;-86
2022/05/19 07:59:16;;;;;;;18.43;14.70;;;;;;;22.11;68.83;101483.44;4976513;28;20466;-85
2022/05/19 08:01:43;;;;;;;23.15;14.00;;;;;;;22.18;70.14;101470.16;4993899;28;20470;-84
2022/05/19 08:04:13;;;;;;;22.02;14.02;;;;;;;22.24;68.38;101465.47;4976141;28;20418;-85
2022/05/19 08:06:39;;;;;;;18.33;13.77;;;;;;;22.37;69.00;101470.44;4976456;28;20518;-85
2022/05/19 08:11:53;;;;;;;20.20;13.20;;;;;;;22.48;66.46;101468.47;4994310;28;20383;-85
2022/05/19 08:17:08;;;;;;;14.38;12.27;;;;;;;22.63;65.39;101483.34;4994417;28;20499;-86
2022/05/19 08:19:34;;;;;;;17.20;11.75;;;;;;;22.79;65.02;101479.44;4960408;28;20462;-86
2022/05/19 08:22:00;;;;;;;17.47;10.83;;;;;;;22.91;65.32;101484.63;4976533;28;20027;-86
2022/05/19 08:24:26;;;;;;;15.13;11.00;;;;;;;22.99;63.64;101473.00;4976256;28;20451;-85
2022/05/19 08:26:52;;;;;;;13.70;10.10;;;;;;;23.12;63.04;101471.56;4993313;28;20109;-85
2022/05/19 08:29:24;;;;;;;15.27;10.52;;;;;;;23.27;62.78;101471.47;4976928;28;20031;-86
2022/05/19 08:31:50;;;;;;;12.05;10.10;;;;;;;23.40;60.71;101470.00;4996309;28;20033;-86
2022/05/19 08:34:15;;;;;;;13.95;9.30;;;;;;;23.55;59.70;101471.00;5014613;28;20055;-85
2022/05/19 08:36:43;;;;;;;16.30;9.43;;;;;;;23.69;58.96;101460.94;4998667;28;20359;-86
2022/05/19 08:39:09;;;;;;;13.02;8.85;;;;;;;23.89;58.77;101464.69;5016693;28;20095;-84
2022/05/19 08:41:42;;;;;;;14.18;8.63;;;;;;;24.06;57.27;101470.59;4999360;28;20072;-85
2022/05/19 08:44:29;;;;;;;15.93;9.30;;;;;;;24.25;56.42;101461.56;4999360;28;20425;-85
2022/05/19 08:46:58;;;;;;;11.57;8.80;;;;;;;24.47;55.70;101456.31;4999301;28;20458;-85
2022/05/19 08:50:01;;;;;;;144.88;30.63;;;;;;;24.75;56.52;101447.44;5016202;28;20026;-86
2022/05/19 08:52:36;;;;;;;20.88;9.25;;;;;;;24.86;54.36;101447.00;4999045;28;20101;-86
2022/05/19 08:55:05;;;;;;;16.92;8.77;;;;;;;25.04;53.73;101448.16;4998542;28;20033;-86
2022/05/19 08:57:36;;;;;;;15.80;8.82;;;;;;;25.22;53.38;101440.94;5016444;28;20126;-86
2022/05/19 09:00:11;;;;;;;16.30;8.87;;;;;;;25.48;53.21;101439.75;4999065;28;20129;-86
2022/05/19 09:02:39;;;;;;;14.18;8.52;;;;;;;25.66;52.03;101440.84;4999540;28;20034;-87
2022/05/19 09:05:12;;;;;;;15.20;8.52;;;;;;;25.89;51.92;101439.88;5016211;28;20069;-86
2022/05/19 09:08:04;;;;;;;11.95;8.13;;;;;;;26.21;52.09;101442.97;4998263;28;20038;-86
2022/05/19 09:10:33;;;;;;;10.57;7.22;;;;;;;26.64;50.59;101430.72;5016350;28;20037;-86
2022/05/19 09:13:31;;;;;;;10.90;6.73;;;;;;;27.15;50.77;101432.41;4998353;28;20045;-83
2022/05/19 09:16:02;;;;;;;10.00;6.78;;;;;;;27.70;47.78;101427.75;4992422;28;20067;-86
2022/05/19 09:19:01;;;;;;;10.38;7.28;;;;;;;28.23;47.97;101426.09;5031455;28;20377;-85
2022/05/19 09:21:27;;;;;;;10.73;7.25;;;;;;;28.52;45.13;101429.19;4998440;28;20041;-85
2022/05/19 09:23:56;;;;;;;12.80;7.13;;;;;;;28.64;44.82;101416.56;4997950;28;20018;-85
2022/05/19 09:26:52;;;;;;;8.05;6.75;;;;;;;29.04;46.35;101428.47;5015550;28;20034;-85
2022/05/19 09:29:36;;;;;;;12.82;6.82;;;;;;;29.21;45.17;101424.88;4997856;28;20026;-86
2022/05/19 09:32:30;;;;;;;9.75;7.45;;;;;;;29.24;44.24;101428.19;4998806;28;20030;-85
2022/05/19 09:35:19;;;;;;;9.43;6.37;;;;;;;29.36;44.53;101425.53;4998149;28;20470;-86
2022/05/19 09:38:03;;;;;;;13.02;6.35;;;;;;;29.47;43.08;101428.81;4998980;28;20032;-87
2022/05/19 09:40:32;;;;;;;8.48;6.60;;;;;;;29.45;42.37;101426.34;4997785;28;20446;-88
2022/05/19 09:43:24;;;;;;;13.45;7.28;;;;;;;29.39;43.99;101430.47;5015779;28;20123;-88
2022/05/19 09:45:55;;;;;;;12.57;6.93;;;;;;;29.26;42.76;101421.09;5015212;28;20053;-85
2022/05/19 09:48:27;;;;;;;10.93;6.77;;;;;;;29.27;42.75;101417.16;4998685;28;20385;-85
2022/05/19 09:51:12;;;;;;;14.25;6.97;;;;;;;29.20;43.12;101423.22;4997946;28;20025;-85
2022/05/19 09:53:59;;;;;;;10.48;7.07;;;;;;;29.30;43.31;101415.69;4998520;28;20022;-85
2022/05/19 09:56:53;;;;;;;;;;;;;;;;;;;;;
2022/05/19 09:59:44;;;;;;;8.55;6.13;;;;;;;29.61;42.35;101403.47;5015990;28;20038;-84
2022/05/19 10:02:28;;;;;;;10.97;6.03;;;;;;;29.86;41.62;101399.81;4997891;28;20060;-85
2022/05/19 10:04:57;;;;;;;10.60;6.18;;;;;;;29.89;40.57;101390.75;5015558;28;20115;-85
2022/05/19 10:07:36;;;;;;;10.95;6.00;;;;;;;30.03;40.72;101392.50;4997015;28;20042;-84
2022/05/19 10:10:26;;;;;;;15.80;6.25;;;;;;;30.23;40.64;101377.78;4997592;28;20028;-85
2022/05/19 10:12:58;;;;;;;7.57;6.00;;;;;;;30.29;39.29;101369.19;4997594;28;20478;-88
2022/05/19 10:15:48;;;;;;;;;;;;;;;;;;;;;
2022/05/19 10:18:38;;;;;;;9.35;5.25;;;;;;;30.82;38.30;101353.72;5015706;28;20354;-85
2022/05/19 10:21:31;;;;;;;7.10;5.32;;;;;;;31.11;38.24;101357.63;4996895;28;20029;-85
2022/05/19 10:24:02;;;;;;;8.57;4.60;;;;;;;31.35;35.92;101354.09;4996942;28;20041;-85
2022/05/19 10:26:31;;;;;;;8.75;4.90;;;;;;;31.61;35.27;101359.47;4996851;28;20033;-85
2022/05/19 10:32:22;;;;;;;6.55;4.55;;;;;;;31.89;35.74;101352.34;5015009;28;20525;-85
2022/05/19 10:35:32;;;;;;;10.63;5.10;;;;;;;31.60;36.70;101345.78;4996747;28;20079;-85
2022/05/19 10:38:27;;;;;;;14.02;5.28;;;;;;;31.85;34.76;101343.84;5014593;28;20052;-85
2022/05/19 10:41:34;;;;;;;8.05;5.13;;;;;;;32.03;34.56;101357.66;4994648;28;20481;-85
2022/05/19 10:44:21;;;;;;;9.77;4.93;;;;;;;32.46;33.96;101359.03;4996607;28;20034;-85
2022/05/19 10:47:01;;;;;;;7.38;4.80;;;;;;;32.45;32.70;101363.84;5014510;28;20222;-85
2022/05/19 10:49:46;;;;;;;9.27;4.57;;;;;;;32.15;34.44;101354.84;5014060;28;20030;-85
2022/05/19 10:52:34;;;;;;;8.23;4.95;;;;;;;32.20;34.70;101354.63;5013938;28;20052;-85
2022/05/19 10:55:17;;;;;;;8.48;5.18;;;;;;;32.76;34.16;101344.72;5014804;28;20056;-86
2022/05/19 10:58:10;;;;;;;10.60;4.67;;;;;;;33.09;32.89;101352.94;5013139;28;20030;-86
2022/05/19 11:01:14;;;;;;;12.02;4.60;;;;;;;33.11;32.72;101346.94;4997100;28;20120;-85
2022/05/19 11:03:59;;;;;;;8.02;4.38;;;;;;;32.75;33.21;101349.53;4996734;28;20057;-84
2022/05/19 11:07:15;;;;;;;10.00;4.70;;;;;;;32.24;34.31;101344.31;5013723;28;20026;-84
2022/05/19 11:10:02;;;;;;;11.00;4.65;;;;;;;31.52;34.78;101339.09;4990692;28;20036;-83
2022/05/19 11:12:50;;;;;;;7.70;4.50;;;;;;;31.05;34.85;101336.56;4996335;28;20450;-83
2022/05/19 11:15:42;;;;;;;9.48;4.40;;;;;;;30.41;35.64;101341.31;4996127;28;20065;-83
2022/05/19 11:18:12;;;;;;;5.47;4.40;;;;;;;29.56;36.55;101340.19;4997019;28;20040;-83
2022/05/19 11:20:40;;;;;;;8.93;4.18;;;;;;;28.95;38.50;101352.25;4996092;28;20037;-84
2022/05/19 11:23:45;;;;;;;9.55;4.88;;;;;;;28.42;39.15;101362.50;5014135;28;20119;-83
2022/05/19 11:26:31;;;;;;;10.93;4.80;;;;;;;27.89;40.41;101358.69;4996089;28;20034;-83
2022/05/19 11:29:00;;;;;;;10.75;4.50;;;;;;;27.57;40.97;101384.91;4997032;28;20117;-83
2022/05/19 11:31:48;;;;;;;7.65;4.60;;;;;;;27.34;42.26;101390.47;4995473;28;20057;-83
2022/05/19 11:34:35;;;;;;;11.25;4.40;;;;;;;27.16;42.29;101397.03;4996702;28;20038;-83
2022/05/19 11:37:31;;;;;;;14.43;4.82;;;;;;;26.95;43.19;101401.09;4995826;28;20033;-83
2022/05/19 11:40:24;;;;;;;20.00;5.73;;;;;;;26.71;44.20;101546.09;5013497;28;20040;-83
2022/05/19 11:43:09;;;;;;;177.90;10.70;;;;;;;25.27;50.59;101664.16;5013465;28;20377;-83
2022/05/19 11:46:01;;;;;;;46.97;4.75;;;;;;;19.91;80.64;101748.63;5014377;28;20038;-91
2022/05/19 11:55:14;;;;;;;5.20;1.70;;;;;;;16.44;97.84;101683.66;5013652;28;20109;-88
2022/05/19 11:57:59;;;;;;;7.45;1.42;;;;;;;16.01;98.89;101662.84;4995627;28;20041;-87
2022/05/19 12:01:00;;;;;;;7.60;1.30;;;;;;;15.61;100.00;101645.00;4996348;28;20041;-87